sensor_id;sensor_type;location;lat;lon;timestamp;pressure;altitude;pressure_sealevel;temperature;humidity
7105;BME280;3594;42.152;24.714;2023-04-08T00:00:58;-24025.00;;;7.45;nan
7105;BME280;3594;42.152;24.714;2023-04-08T00:03:24;-24027.13;;;7.52;nan
7105;BME280;3594;42.152;24.714;2023-04-08T00:05:50;-24027.41;;;7.53;nan
7105;BME280;3594;42.152;24.714;2023-04-08T00:08:15;-24022.03;;;7.34;nan
7105;BME280;3594;42.152;24.714;2023-04-08T00:10:40;-24028.97;;;7.59;nan
7105;BME280;3594;42.152;24.714;2023-04-08T00:13:06;-24022.16;;;7.35;nan
7105;BME280;3594;42.152;24.714;2023-04-08T00:15:31;-24026.97;;;7.52;nan
7105;BME280;3594;42.152;24.714;2023-04-08T00:17:57;-24025.13;;;7.45;nan
7105;BME280;3594;42.152;24.714;2023-04-08T00:20:23;-24024.28;;;7.42;nan
7105;BME280;3594;42.152;24.714;2023-04-08T00:22:48;-24018.34;;;7.21;nan
7105;BME280;3594;42.152;24.714;2023-04-08T00:25:14;-24025.84;;;7.48;nan
7105;BME280;3594;42.152;24.714;2023-04-08T00:27:39;-24028.41;;;7.57;nan
7105;BME280;3594;42.152;24.714;2023-04-08T00:30:05;-24029.25;;;7.60;nan
7105;BME280;3594;42.152;24.714;2023-04-08T00:32:31;-24028.41;;;7.57;nan
7105;BME280;3594;42.152;24.714;2023-04-08T00:34:57;-24022.88;;;7.37;nan
7105;BME280;3594;42.152;24.714;2023-04-08T00:37:22;-24028.81;;;7.59;nan
7105;BME280;3594;42.152;24.714;2023-04-08T00:39:49;-24026.69;;;7.51;nan
7105;BME280;3594;42.152;24.714;2023-04-08T00:42:15;-24025.13;;;7.45;nan
7105;BME280;3594;42.152;24.714;2023-04-08T00:44:41;-24024.00;;;7.41;nan
7105;BME280;3594;42.152;24.714;2023-04-08T00:47:11;-24030.25;;;7.64;nan
7105;BME280;3594;42.152;24.714;2023-04-08T00:49:36;-24029.41;;;7.61;nan
7105;BME280;3594;42.152;24.714;2023-04-08T00:52:02;-24033.94;;;7.77;nan
7105;BME280;3594;42.152;24.714;2023-04-08T00:54:27;-24032.66;;;7.72;nan
7105;BME280;3594;42.152;24.714;2023-04-08T00:56:54;-24022.59;;;7.36;nan
7105;BME280;3594;42.152;24.714;2023-04-08T00:59:21;-24017.34;;;7.18;nan
7105;BME280;3594;42.152;24.714;2023-04-08T01:01:58;-24034.34;;;7.78;nan
7105;BME280;3594;42.152;24.714;2023-04-08T01:07:26;-24022.03;;;7.34;nan
7105;BME280;3594;42.152;24.714;2023-04-08T01:09:56;-24031.66;;;7.69;nan
7105;BME280;3594;42.152;24.714;2023-04-08T01:12:28;-24030.81;;;7.66;nan
7105;BME280;3594;42.152;24.714;2023-04-08T01:15:04;-24026.13;;;7.49;nan
7105;BME280;3594;42.152;24.714;2023-04-08T01:17:31;-24029.41;;;7.61;nan
7105;BME280;3594;42.152;24.714;2023-04-08T01:19:59;-24030.66;;;7.65;nan
7105;BME280;3594;42.152;24.714;2023-04-08T01:25:15;-24031.25;;;7.67;nan
7105;BME280;3594;42.152;24.714;2023-04-08T01:27:42;-24032.66;;;7.72;nan
7105;BME280;3594;42.152;24.714;2023-04-08T01:30:08;-24033.66;;;7.76;nan
7105;BME280;3594;42.152;24.714;2023-04-08T01:32:34;-24033.06;;;7.74;nan
7105;BME280;3594;42.152;24.714;2023-04-08T01:35:01;-24024.44;;;7.43;nan
7105;BME280;3594;42.152;24.714;2023-04-08T01:37:28;-24025.84;;;7.48;nan
7105;BME280;3594;42.152;24.714;2023-04-08T01:39:55;-24021.03;;;7.31;nan
7105;BME280;3594;42.152;24.714;2023-04-08T01:42:25;-24019.91;;;7.27;nan
7105;BME280;3594;42.152;24.714;2023-04-08T01:44:55;-24029.53;;;7.61;nan
7105;BME280;3594;42.152;24.714;2023-04-08T01:47:21;-24027.41;;;7.53;nan
7105;BME280;3594;42.152;24.714;2023-04-08T01:49:49;-24029.09;;;7.60;nan
7105;BME280;3594;42.152;24.714;2023-04-08T01:52:17;-24020.31;;;7.28;nan
7105;BME280;3594;42.152;24.714;2023-04-08T01:54:42;-24022.31;;;7.35;nan
7105;BME280;3594;42.152;24.714;2023-04-08T01:57:11;-24025.44;;;7.46;nan
7105;BME280;3594;42.152;24.714;2023-04-08T01:59:39;-24026.56;;;7.50;nan
7105;BME280;3594;42.152;24.714;2023-04-08T02:02:07;-24019.34;;;7.25;nan
7105;BME280;3594;42.152;24.714;2023-04-08T02:04:34;-24018.63;;;7.22;nan
7105;BME280;3594;42.152;24.714;2023-04-08T02:07:00;-24019.19;;;7.24;nan
7105;BME280;3594;42.152;24.714;2023-04-08T02:09:26;-24015.66;;;7.12;nan
7105;BME280;3594;42.152;24.714;2023-04-08T02:11:51;-24015.50;;;7.11;nan
7105;BME280;3594;42.152;24.714;2023-04-08T02:14:17;-24021.31;;;7.32;nan
7105;BME280;3594;42.152;24.714;2023-04-08T02:16:49;-24020.75;;;7.30;nan
7105;BME280;3594;42.152;24.714;2023-04-08T02:19:35;-24022.88;;;7.37;nan
7105;BME280;3594;42.152;24.714;2023-04-08T02:22:05;-24020.03;;;7.27;nan
7105;BME280;3594;42.152;24.714;2023-04-08T02:24:34;-24021.03;;;7.31;nan
7105;BME280;3594;42.152;24.714;2023-04-08T02:27:02;-24014.50;;;7.07;nan
7105;BME280;3594;42.152;24.714;2023-04-08T02:29:30;-24005.00;;;6.74;nan
7105;BME280;3594;42.152;24.714;2023-04-08T02:31:59;-24022.03;;;7.34;nan
7105;BME280;3594;42.152;24.714;2023-04-08T02:34:25;-24016.22;;;7.14;nan
7105;BME280;3594;42.152;24.714;2023-04-08T02:36:51;-24020.88;;;7.30;nan
7105;BME280;3594;42.152;24.714;2023-04-08T02:39:17;-24018.47;;;7.22;nan
7105;BME280;3594;42.152;24.714;2023-04-08T02:41:42;-24014.78;;;7.08;nan
7105;BME280;3594;42.152;24.714;2023-04-08T02:44:08;-24017.78;;;7.19;nan
7105;BME280;3594;42.152;24.714;2023-04-08T02:46:34;-24018.19;;;7.21;nan
7105;BME280;3594;42.152;24.714;2023-04-08T02:49:00;-24014.38;;;7.07;nan
7105;BME280;3594;42.152;24.714;2023-04-08T02:51:25;-24016.63;;;7.15;nan
7105;BME280;3594;42.152;24.714;2023-04-08T02:53:52;-24008.97;;;6.88;nan
7105;BME280;3594;42.152;24.714;2023-04-08T02:56:17;-24018.06;;;7.20;nan
7105;BME280;3594;42.152;24.714;2023-04-08T02:58:43;-24017.63;;;7.19;nan
7105;BME280;3594;42.152;24.714;2023-04-08T03:01:08;-24017.06;;;7.17;nan
7105;BME280;3594;42.152;24.714;2023-04-08T03:03:33;-24012.94;;;7.02;nan
7105;BME280;3594;42.152;24.714;2023-04-08T03:05:59;-23946.88;;;4.67;nan
7105;BME280;3594;42.152;24.714;2023-04-08T03:08:25;-24004.44;;;6.72;nan
7105;BME280;3594;42.152;24.714;2023-04-08T03:10:51;-24012.25;;;6.99;nan
7105;BME280;3594;42.152;24.714;2023-04-08T03:13:16;-24002.72;;;6.65;nan
7105;BME280;3594;42.152;24.714;2023-04-08T03:15:41;-24012.94;;;7.02;nan
7105;BME280;3594;42.152;24.714;2023-04-08T03:18:07;-24009.97;;;6.91;nan
7105;BME280;3594;42.152;24.714;2023-04-08T03:20:33;-24011.53;;;6.97;nan
7105;BME280;3594;42.152;24.714;2023-04-08T03:22:58;-24012.38;;;7.00;nan
7105;BME280;3594;42.152;24.714;2023-04-08T03:25:23;-24013.81;;;7.05;nan
7105;BME280;3594;42.152;24.714;2023-04-08T03:27:49;-24013.38;;;7.03;nan
7105;BME280;3594;42.152;24.714;2023-04-08T03:30:15;-24007.13;;;6.81;nan
7105;BME280;3594;42.152;24.714;2023-04-08T03:32:40;-24008.13;;;6.85;nan
7105;BME280;3594;42.152;24.714;2023-04-08T03:35:06;-24014.38;;;7.07;nan
7105;BME280;3594;42.152;24.714;2023-04-08T03:37:32;-24004.16;;;6.71;nan
7105;BME280;3594;42.152;24.714;2023-04-08T03:39:57;-24008.00;;;6.84;nan
7105;BME280;3594;42.152;24.714;2023-04-08T03:42:23;-24009.69;;;6.90;nan
7105;BME280;3594;42.152;24.714;2023-04-08T03:44:48;-24011.25;;;6.96;nan
7105;BME280;3594;42.152;24.714;2023-04-08T03:47:14;-24010.25;;;6.92;nan
7105;BME280;3594;42.152;24.714;2023-04-08T03:49:39;-24011.66;;;6.97;nan
7105;BME280;3594;42.152;24.714;2023-04-08T03:52:04;-24012.25;;;6.99;nan
7105;BME280;3594;42.152;24.714;2023-04-08T03:54:30;-24012.94;;;7.02;nan
7105;BME280;3594;42.152;24.714;2023-04-08T03:56:55;-24006.13;;;6.78;nan
7105;BME280;3594;42.152;24.714;2023-04-08T03:59:21;-24010.53;;;6.93;nan
7105;BME280;3594;42.152;24.714;2023-04-08T04:01:47;-24003.44;;;6.68;nan
7105;BME280;3594;42.152;24.714;2023-04-08T04:04:12;-24010.53;;;6.93;nan
7105;BME280;3594;42.152;24.714;2023-04-08T04:06:38;-24014.22;;;7.06;nan
7105;BME280;3594;42.152;24.714;2023-04-08T04:09:03;-24005.44;;;6.75;nan
7105;BME280;3594;42.152;24.714;2023-04-08T04:11:28;-24013.22;;;7.03;nan
7105;BME280;3594;42.152;24.714;2023-04-08T04:13:54;-24006.13;;;6.78;nan
7105;BME280;3594;42.152;24.714;2023-04-08T04:16:19;-24013.22;;;7.03;nan
7105;BME280;3594;42.152;24.714;2023-04-08T04:18:45;-24014.66;;;7.08;nan
7105;BME280;3594;42.152;24.714;2023-04-08T04:21:10;-24016.78;;;7.16;nan
7105;BME280;3594;42.152;24.714;2023-04-08T04:23:36;-24015.50;;;7.11;nan
7105;BME280;3594;42.152;24.714;2023-04-08T04:26:07;-24005.56;;;6.76;nan
7105;BME280;3594;42.152;24.714;2023-04-08T04:28:33;-24011.25;;;6.96;nan
7105;BME280;3594;42.152;24.714;2023-04-08T04:30:58;-24010.69;;;6.94;nan
7105;BME280;3594;42.152;24.714;2023-04-08T04:33:23;-24008.25;;;6.85;nan
7105;BME280;3594;42.152;24.714;2023-04-08T04:35:49;-24010.41;;;6.93;nan
7105;BME280;3594;42.152;24.714;2023-04-08T04:38:14;-24012.09;;;6.99;nan
7105;BME280;3594;42.152;24.714;2023-04-08T04:40:40;-24010.81;;;6.94;nan
7105;BME280;3594;42.152;24.714;2023-04-08T04:43:05;-24017.63;;;7.19;nan
7105;BME280;3594;42.152;24.714;2023-04-08T04:45:31;-24013.09;;;7.02;nan
7105;BME280;3594;42.152;24.714;2023-04-08T04:47:56;-24017.06;;;7.17;nan
7105;BME280;3594;42.152;24.714;2023-04-08T04:50:22;-24022.59;;;7.36;nan
7105;BME280;3594;42.152;24.714;2023-04-08T04:52:47;-24021.47;;;7.32;nan
7105;BME280;3594;42.152;24.714;2023-04-08T04:55:13;-24024.56;;;7.43;nan
7105;BME280;3594;42.152;24.714;2023-04-08T04:57:40;-24026.28;;;7.49;nan
7105;BME280;3594;42.152;24.714;2023-04-08T05:00:06;-24023.88;;;7.41;nan
7105;BME280;3594;42.152;24.714;2023-04-08T05:02:32;-24019.03;;;7.24;nan
7105;BME280;3594;42.152;24.714;2023-04-08T05:04:57;-24016.63;;;7.15;nan
7105;BME280;3594;42.152;24.714;2023-04-08T05:07:23;-24024.88;;;7.44;nan
7105;BME280;3594;42.152;24.714;2023-04-08T05:09:48;-24016.78;;;7.16;nan
7105;BME280;3594;42.152;24.714;2023-04-08T05:12:14;-24032.22;;;7.71;nan
7105;BME280;3594;42.152;24.714;2023-04-08T05:14:40;-24030.09;;;7.63;nan
7105;BME280;3594;42.152;24.714;2023-04-08T05:17:06;-24031.94;;;7.70;nan
7105;BME280;3594;42.152;24.714;2023-04-08T05:19:32;-24022.03;;;7.34;nan
7105;BME280;3594;42.152;24.714;2023-04-08T05:21:57;-24030.25;;;7.64;nan
7105;BME280;3594;42.152;24.714;2023-04-08T05:24:22;-24035.91;;;7.84;nan
7105;BME280;3594;42.152;24.714;2023-04-08T05:26:48;-24028.53;;;7.58;nan
7105;BME280;3594;42.152;24.714;2023-04-08T05:29:17;-24028.53;;;7.58;nan
7105;BME280;3594;42.152;24.714;2023-04-08T05:31:43;-24037.03;;;7.88;nan
7105;BME280;3594;42.152;24.714;2023-04-08T05:34:09;-24041.84;;;8.05;nan
7105;BME280;3594;42.152;24.714;2023-04-08T05:36:35;-24044.28;;;8.14;nan
7105;BME280;3594;42.152;24.714;2023-04-08T05:39:00;-24041.00;;;8.02;nan
7105;BME280;3594;42.152;24.714;2023-04-08T05:41:26;-24044.41;;;8.14;nan
7105;BME280;3594;42.152;24.714;2023-04-08T05:43:51;-24043.00;;;8.09;nan
7105;BME280;3594;42.152;24.714;2023-04-08T05:46:16;-24040.44;;;8.00;nan
7105;BME280;3594;42.152;24.714;2023-04-08T05:48:42;-24047.66;;;8.26;nan
7105;BME280;3594;42.152;24.714;2023-04-08T05:51:12;-24053.63;;;8.47;nan
7105;BME280;3594;42.152;24.714;2023-04-08T05:53:38;-24059.84;;;8.69;nan
7105;BME280;3594;42.152;24.714;2023-04-08T05:56:03;-24069.75;;;9.05;nan
7105;BME280;3594;42.152;24.714;2023-04-08T05:58:29;-24062.09;;;8.77;nan
7105;BME280;3594;42.152;24.714;2023-04-08T06:00:54;-24072.56;;;9.15;nan
7105;BME280;3594;42.152;24.714;2023-04-08T06:03:20;-24070.59;;;9.08;nan
7105;BME280;3594;42.152;24.714;2023-04-08T06:05:46;-24066.06;;;8.92;nan
7105;BME280;3594;42.152;24.714;2023-04-08T06:08:11;-24071.44;;;9.11;nan
7105;BME280;3594;42.152;24.714;2023-04-08T06:10:36;-24067.06;;;8.95;nan
7105;BME280;3594;42.152;24.714;2023-04-08T06:13:02;-24066.63;;;8.94;nan
7105;BME280;3594;42.152;24.714;2023-04-08T06:15:27;-24062.09;;;8.77;nan
7105;BME280;3594;42.152;24.714;2023-04-08T06:17:53;-24076.25;;;9.28;nan
7105;BME280;3594;42.152;24.714;2023-04-08T06:20:18;-24083.16;;;9.53;nan
7105;BME280;3594;42.152;24.714;2023-04-08T06:22:43;-24086.72;;;9.65;nan
7105;BME280;3594;42.152;24.714;2023-04-08T06:25:09;-24093.78;;;9.91;nan
7105;BME280;3594;42.152;24.714;2023-04-08T06:27:34;-24100.25;;;10.14;nan
7105;BME280;3594;42.152;24.714;2023-04-08T06:29:59;-24093.22;;;9.89;nan
7105;BME280;3594;42.152;24.714;2023-04-08T06:32:25;-24094.63;;;9.94;nan
7105;BME280;3594;42.152;24.714;2023-04-08T06:34:51;-24097.44;;;10.04;nan
7105;BME280;3594;42.152;24.714;2023-04-08T06:37:16;-24102.38;;;10.22;nan
7105;BME280;3594;42.152;24.714;2023-04-08T06:39:42;-24086.84;;;9.66;nan
7105;BME280;3594;42.152;24.714;2023-04-08T06:42:08;-24087.56;;;9.68;nan
7105;BME280;3594;42.152;24.714;2023-04-08T06:44:33;-24084.72;;;9.58;nan
7105;BME280;3594;42.152;24.714;2023-04-08T06:46:59;-24097.88;;;10.05;nan
7105;BME280;3594;42.152;24.714;2023-04-08T06:49:25;-24094.34;;;9.93;nan
7105;BME280;3594;42.152;24.714;2023-04-08T06:51:51;-24100.84;;;10.16;nan
7105;BME280;3594;42.152;24.714;2023-04-08T06:54:17;-24105.78;;;10.34;nan
7105;BME280;3594;42.152;24.714;2023-04-08T06:56:42;-24099.84;;;10.12;nan
7105;BME280;3594;42.152;24.714;2023-04-08T06:59:07;-24099.41;;;10.11;nan
7105;BME280;3594;42.152;24.714;2023-04-08T07:01:33;-24105.06;;;10.31;nan
7105;BME280;3594;42.152;24.714;2023-04-08T07:03:58;-24120.16;;;10.85;nan
7105;BME280;3594;42.152;24.714;2023-04-08T07:06:26;-24122.41;;;10.93;nan
7105;BME280;3594;42.152;24.714;2023-04-08T07:08:51;-24101.69;;;10.19;nan
7105;BME280;3594;42.152;24.714;2023-04-08T07:11:16;-24112.41;;;10.57;nan
7105;BME280;3594;42.152;24.714;2023-04-08T07:13:42;-24107.03;;;10.38;nan
7105;BME280;3594;42.152;24.714;2023-04-08T07:16:07;-24126.94;;;11.10;nan
7105;BME280;3594;42.152;24.714;2023-04-08T07:18:33;-24130.31;;;11.22;nan
7105;BME280;3594;42.152;24.714;2023-04-08T07:20:58;-24141.72;;;11.63;nan
7105;BME280;3594;42.152;24.714;2023-04-08T07:23:25;-24145.25;;;11.75;nan
7105;BME280;3594;42.152;24.714;2023-04-08T07:25:51;-24150.47;;;11.94;nan
7105;BME280;3594;42.152;24.714;2023-04-08T07:28:20;-24134.13;;;11.35;nan
7105;BME280;3594;42.152;24.714;2023-04-08T07:30:46;-24146.53;;;11.80;nan
7105;BME280;3594;42.152;24.714;2023-04-08T07:33:11;-24139.19;;;11.53;nan
7105;BME280;3594;42.152;24.714;2023-04-08T07:35:37;-24163.69;;;12.42;nan
7105;BME280;3594;42.152;24.714;2023-04-08T07:38:03;-24184.38;;;13.16;nan
7105;BME280;3594;42.152;24.714;2023-04-08T07:40:28;-24212.72;;;14.18;nan
7105;BME280;3594;42.152;24.714;2023-04-08T07:42:54;-24211.31;;;14.13;nan
7105;BME280;3594;42.152;24.714;2023-04-08T07:45:20;-24185.63;;;13.20;nan
7105;BME280;3594;42.152;24.714;2023-04-08T07:47:45;-24182.97;;;13.11;nan
7105;BME280;3594;42.152;24.714;2023-04-08T07:50:11;-24171.16;;;12.68;nan
7105;BME280;3594;42.152;24.714;2023-04-08T07:52:37;-24177.47;;;12.91;nan
7105;BME280;3594;42.152;24.714;2023-04-08T07:55:02;-24158.50;;;12.23;nan
7105;BME280;3594;42.152;24.714;2023-04-08T07:57:30;-24168.63;;;12.59;nan
7105;BME280;3594;42.152;24.714;2023-04-08T07:59:55;-24169.75;;;12.63;nan
7105;BME280;3594;42.152;24.714;2023-04-08T08:02:21;-24171.28;;;12.69;nan
7105;BME280;3594;42.152;24.714;2023-04-08T08:04:46;-24169.88;;;12.64;nan
7105;BME280;3594;42.152;24.714;2023-04-08T08:07:12;-24170.16;;;12.65;nan
7105;BME280;3594;42.152;24.714;2023-04-08T08:09:37;-24160.75;;;12.31;nan
7105;BME280;3594;42.152;24.714;2023-04-08T08:12:03;-24165.09;;;12.47;nan
7105;BME280;3594;42.152;24.714;2023-04-08T08:14:28;-24166.78;;;12.53;nan
7105;BME280;3594;42.152;24.714;2023-04-08T08:16:54;-24166.94;;;12.53;nan
7105;BME280;3594;42.152;24.714;2023-04-08T08:19:20;-24184.22;;;13.15;nan
7105;BME280;3594;42.152;24.714;2023-04-08T08:21:45;-24187.75;;;13.28;nan
7105;BME280;3594;42.152;24.714;2023-04-08T08:24:11;-24173.53;;;12.77;nan
7105;BME280;3594;42.152;24.714;2023-04-08T08:26:36;-24180.84;;;13.03;nan
7105;BME280;3594;42.152;24.714;2023-04-08T08:29:02;-24169.75;;;12.63;nan
7105;BME280;3594;42.152;24.714;2023-04-08T08:31:28;-24181.84;;;13.07;nan
7105;BME280;3594;42.152;24.714;2023-04-08T08:33:53;-24184.66;;;13.17;nan
7105;BME280;3594;42.152;24.714;2023-04-08T08:36:19;-24204.72;;;13.89;nan
7105;BME280;3594;42.152;24.714;2023-04-08T08:38:44;-24204.31;;;13.88;nan
7105;BME280;3594;42.152;24.714;2023-04-08T08:41:10;-24201.38;;;13.77;nan
7105;BME280;3594;42.152;24.714;2023-04-08T08:43:35;-24150.19;;;11.93;nan
7105;BME280;3594;42.152;24.714;2023-04-08T08:46:02;-24185.50;;;13.20;nan
7105;BME280;3594;42.152;24.714;2023-04-08T08:48:27;-24186.47;;;13.23;nan
7105;BME280;3594;42.152;24.714;2023-04-08T08:50:53;-24190.97;;;13.40;nan
7105;BME280;3594;42.152;24.714;2023-04-08T08:53:19;-24196.59;;;13.60;nan
7105;BME280;3594;42.152;24.714;2023-04-08T08:55:44;-24181.56;;;13.06;nan
7105;BME280;3594;42.152;24.714;2023-04-08T08:58:10;-24181.00;;;13.04;nan
7105;BME280;3594;42.152;24.714;2023-04-08T09:00:37;-24182.53;;;13.09;nan
7105;BME280;3594;42.152;24.714;2023-04-08T09:03:23;-24176.06;;;12.86;nan
7105;BME280;3594;42.152;24.714;2023-04-08T09:05:55;-24169.59;;;12.63;nan
7105;BME280;3594;42.152;24.714;2023-04-08T09:08:36;-24178.59;;;12.95;nan
7105;BME280;3594;42.152;24.714;2023-04-08T09:13:37;-24193.50;;;13.49;nan
7105;BME280;3594;42.152;24.714;2023-04-08T09:16:04;-24187.19;;;13.26;nan
7105;BME280;3594;42.152;24.714;2023-04-08T09:18:32;-24190.97;;;13.40;nan
7105;BME280;3594;42.152;24.714;2023-04-08T09:21:02;-24188.72;;;13.32;nan
7105;BME280;3594;42.152;24.714;2023-04-08T09:26:16;-24186.91;;;13.25;nan
7105;BME280;3594;42.152;24.714;2023-04-08T09:28:57;-24209.34;;;14.06;nan
7105;BME280;3594;42.152;24.714;2023-04-08T09:31:24;-24196.03;;;13.58;nan
7105;BME280;3594;42.152;24.714;2023-04-08T09:33:56;-24175.50;;;12.84;nan
7105;BME280;3594;42.152;24.714;2023-04-08T09:36:21;-24190.13;;;13.37;nan
7105;BME280;3594;42.152;24.714;2023-04-08T09:38:47;-24203.03;;;13.83;nan
7105;BME280;3594;42.152;24.714;2023-04-08T09:41:14;-24223.41;;;14.56;nan
7105;BME280;3594;42.152;24.714;2023-04-08T09:43:47;-24209.91;;;14.08;nan
7105;BME280;3594;42.152;24.714;2023-04-08T09:46:15;-24194.75;;;13.53;nan
7105;BME280;3594;42.152;24.714;2023-04-08T09:48:57;-24201.91;;;13.79;nan
7105;BME280;3594;42.152;24.714;2023-04-08T09:51:28;-24205.72;;;13.93;nan
7105;BME280;3594;42.152;24.714;2023-04-08T09:54:00;-24221.44;;;14.49;nan
7105;BME280;3594;42.152;24.714;2023-04-08T09:56:30;-24233.06;;;14.91;nan
7105;BME280;3594;42.152;24.714;2023-04-08T09:59:02;-24232.63;;;14.90;nan
7105;BME280;3594;42.152;24.714;2023-04-08T10:01:38;-24241.06;;;15.20;nan
7105;BME280;3594;42.152;24.714;2023-04-08T10:04:09;-24227.47;;;14.71;nan
7105;BME280;3594;42.152;24.714;2023-04-08T10:06:37;-24221.72;;;14.50;nan
7105;BME280;3594;42.152;24.714;2023-04-08T10:09:02;-24213.72;;;14.22;nan
7105;BME280;3594;42.152;24.714;2023-04-08T10:11:29;-24207.25;;;13.98;nan
7105;BME280;3594;42.152;24.714;2023-04-08T10:13:55;-24212.88;;;14.19;nan
7105;BME280;3594;42.152;24.714;2023-04-08T10:16:21;-24206.69;;;13.96;nan
7105;BME280;3594;42.152;24.714;2023-04-08T10:18:49;-24220.31;;;14.45;nan
7105;BME280;3594;42.152;24.714;2023-04-08T10:21:37;-24244.00;;;15.31;nan
7105;BME280;3594;42.152;24.714;2023-04-08T10:24:07;-24245.38;;;15.36;nan
7105;BME280;3594;42.152;24.714;2023-04-08T10:26:35;-24260.78;;;15.91;nan
7105;BME280;3594;42.152;24.714;2023-04-08T10:31:53;-24280.09;;;16.61;nan
7105;BME280;3594;42.152;24.714;2023-04-08T10:34:23;-24278.28;;;16.55;nan
7105;BME280;3594;42.152;24.714;2023-04-08T10:36:50;-24269.75;;;16.24;nan
7105;BME280;3594;42.152;24.714;2023-04-08T10:39:16;-24265.56;;;16.09;nan
7105;BME280;3594;42.152;24.714;2023-04-08T10:41:43;-24239.66;;;15.15;nan
7105;BME280;3594;42.152;24.714;2023-04-08T10:44:15;-24251.13;;;15.57;nan
7105;BME280;3594;42.152;24.714;2023-04-08T10:46:49;-24255.63;;;15.73;nan
7105;BME280;3594;42.152;24.714;2023-04-08T10:49:15;-24254.06;;;15.67;nan
7105;BME280;3594;42.152;24.714;2023-04-08T10:51:42;-24257.16;;;15.78;nan
7105;BME280;3594;42.152;24.714;2023-04-08T10:54:16;-24233.91;;;14.94;nan
7105;BME280;3594;42.152;24.714;2023-04-08T10:56:46;-24238.66;;;15.12;nan
7105;BME280;3594;42.152;24.714;2023-04-08T10:59:13;-24241.19;;;15.21;nan
7105;BME280;3594;42.152;24.714;2023-04-08T11:01:44;-24248.34;;;15.46;nan
7105;BME280;3594;42.152;24.714;2023-04-08T11:04:11;-24236.56;;;15.04;nan
7105;BME280;3594;42.152;24.714;2023-04-08T11:06:37;-24241.88;;;15.23;nan
7105;BME280;3594;42.152;24.714;2023-04-08T11:09:03;-24251.13;;;15.57;nan
7105;BME280;3594;42.152;24.714;2023-04-08T11:11:29;-24252.53;;;15.62;nan
7105;BME280;3594;42.152;24.714;2023-04-08T11:13:55;-24258.00;;;15.81;nan
7105;BME280;3594;42.152;24.714;2023-04-08T11:16:21;-24248.75;;;15.48;nan
7105;BME280;3594;42.152;24.714;2023-04-08T11:18:47;-24242.16;;;15.24;nan
7105;BME280;3594;42.152;24.714;2023-04-08T11:21:14;-24247.34;;;15.43;nan
7105;BME280;3594;42.152;24.714;2023-04-08T11:23:41;-24255.91;;;15.74;nan
7105;BME280;3594;42.152;24.714;2023-04-08T11:26:06;-24252.25;;;15.61;nan
7105;BME280;3594;42.152;24.714;2023-04-08T11:28:33;-24266.66;;;16.13;nan
7105;BME280;3594;42.152;24.714;2023-04-08T11:30:59;-24284.41;;;16.77;nan
7105;BME280;3594;42.152;24.714;2023-04-08T11:33:25;-24178.47;;;12.95;nan
7105;BME280;3594;42.152;24.714;2023-04-08T11:35:53;-24288.88;;;16.93;nan
7105;BME280;3594;42.152;24.714;2023-04-08T11:38:22;-24248.75;;;15.48;nan
7105;BME280;3594;42.152;24.714;2023-04-08T11:41:00;-24274.91;;;16.43;nan
7105;BME280;3594;42.152;24.714;2023-04-08T11:45:51;-24283.31;;;16.73;nan
7105;BME280;3594;42.152;24.714;2023-04-08T11:48:17;-24287.06;;;16.87;nan
7105;BME280;3594;42.152;24.714;2023-04-08T11:50:43;-24276.59;;;16.49;nan
7105;BME280;3594;42.152;24.714;2023-04-08T11:53:35;-24284.13;;;16.76;nan
7105;BME280;3594;42.152;24.714;2023-04-08T11:56:18;-24257.72;;;15.80;nan
7105;BME280;3594;42.152;24.714;2023-04-08T11:58:44;-24272.25;;;16.33;nan
7105;BME280;3594;42.152;24.714;2023-04-08T12:01:10;-24260.78;;;15.91;nan
7105;BME280;3594;42.152;24.714;2023-04-08T12:03:36;-24243.28;;;15.28;nan
7105;BME280;3594;42.152;24.714;2023-04-08T12:06:01;-24251.97;;;15.60;nan
7105;BME280;3594;42.152;24.714;2023-04-08T12:08:28;-24255.75;;;15.73;nan
7105;BME280;3594;42.152;24.714;2023-04-08T12:10:54;-24267.38;;;16.15;nan
7105;BME280;3594;42.152;24.714;2023-04-08T12:13:19;-24280.94;;;16.64;nan
7105;BME280;3594;42.152;24.714;2023-04-08T12:15:45;-24280.94;;;16.64;nan
7105;BME280;3594;42.152;24.714;2023-04-08T12:18:10;-24289.16;;;16.94;nan
7105;BME280;3594;42.152;24.714;2023-04-08T12:20:36;-24292.81;;;17.07;nan
7105;BME280;3594;42.152;24.714;2023-04-08T12:23:01;-24273.25;;;16.37;nan
7105;BME280;3594;42.152;24.714;2023-04-08T12:25:27;-24248.75;;;15.48;nan
7105;BME280;3594;42.152;24.714;2023-04-08T12:27:53;-24238.09;;;15.10;nan
7105;BME280;3594;42.152;24.714;2023-04-08T12:30:18;-24249.16;;;15.49;nan
7105;BME280;3594;42.152;24.714;2023-04-08T12:32:44;-24269.75;;;16.24;nan
7105;BME280;3594;42.152;24.714;2023-04-08T12:35:11;-24280.50;;;16.63;nan
7105;BME280;3594;42.152;24.714;2023-04-08T12:37:37;-24286.66;;;16.85;nan
7105;BME280;3594;42.152;24.714;2023-04-08T12:40:02;-24289.72;;;16.96;nan
7105;BME280;3594;42.152;24.714;2023-04-08T12:42:28;-24284.00;;;16.75;nan
7105;BME280;3594;42.152;24.714;2023-04-08T12:44:53;-24293.22;;;17.09;nan
7105;BME280;3594;42.152;24.714;2023-04-08T12:47:18;-24301.72;;;17.40;nan
7105;BME280;3594;42.152;24.714;2023-04-08T12:49:44;-24308.72;;;17.65;nan
7105;BME280;3594;42.152;24.714;2023-04-08T12:52:09;-24313.59;;;17.83;nan
7105;BME280;3594;42.152;24.714;2023-04-08T12:54:35;-24310.66;;;17.72;nan
7105;BME280;3594;42.152;24.714;2023-04-08T12:57:00;-24317.63;;;17.97;nan
7105;BME280;3594;42.152;24.714;2023-04-08T12:59:27;-24319.44;;;18.04;nan
7105;BME280;3594;42.152;24.714;2023-04-08T13:01:52;-24326.56;;;18.30;nan
7105;BME280;3594;42.152;24.714;2023-04-08T13:04:17;-24324.75;;;18.23;nan
7105;BME280;3594;42.152;24.714;2023-04-08T13:06:44;-24325.88;;;18.27;nan
7105;BME280;3594;42.152;24.714;2023-04-08T13:09:09;-24317.34;;;17.96;nan
7105;BME280;3594;42.152;24.714;2023-04-08T13:14:00;-24299.91;;;17.33;nan
7105;BME280;3594;42.152;24.714;2023-04-08T13:16:26;-24308.28;;;17.63;nan
7105;BME280;3594;42.152;24.714;2023-04-08T13:18:51;-24298.81;;;17.29;nan
7105;BME280;3594;42.152;24.714;2023-04-08T13:21:17;-24294.19;;;17.12;nan
7105;BME280;3594;42.152;24.714;2023-04-08T13:23:42;-24298.38;;;17.28;nan
7105;BME280;3594;42.152;24.714;2023-04-08T13:26:08;-24276.88;;;16.50;nan
7105;BME280;3594;42.152;24.714;2023-04-08T13:28:33;-24281.63;;;16.67;nan
7105;BME280;3594;42.152;24.714;2023-04-08T13:30:59;-24289.31;;;16.95;nan
7105;BME280;3594;42.152;24.714;2023-04-08T13:33:24;-24297.81;;;17.26;nan
7105;BME280;3594;42.152;24.714;2023-04-08T13:35:50;-24307.47;;;17.60;nan
7105;BME280;3594;42.152;24.714;2023-04-08T13:38:15;-24303.81;;;17.47;nan
7105;BME280;3594;42.152;24.714;2023-04-08T13:40:40;-24305.34;;;17.53;nan
7105;BME280;3594;42.152;24.714;2023-04-08T13:43:06;-24299.78;;;17.33;nan